sensor_id;sensor_type;location;lat;lon;timestamp;P1;durP1;ratioP1;P2;durP2;ratioP2
58294;SDS011;45705;55.592;37.460;2022-12-29T00:00:59;5.47;;;1.60;;
58294;SDS011;45705;55.592;37.460;2022-12-29T00:03:26;9.05;;;2.25;;
58294;SDS011;45705;55.592;37.460;2022-12-29T00:05:55;6.53;;;1.80;;
58294;SDS011;45705;55.592;37.460;2022-12-29T00:08:22;4.50;;;1.70;;
58294;SDS011;45705;55.592;37.460;2022-12-29T00:13:37;7.18;;;1.55;;
58294;SDS011;45705;55.592;37.460;2022-12-29T00:16:21;11.20;;;2.20;;
58294;SDS011;45705;55.592;37.460;2022-12-29T00:18:47;9.32;;;2.25;;
58294;SDS011;45705;55.592;37.460;2022-12-29T00:21:14;6.15;;;1.40;;
58294;SDS011;45705;55.592;37.460;2022-12-29T00:24:00;5.80;;;1.90;;
58294;SDS011;45705;55.592;37.460;2022-12-29T00:26:46;3.95;;;1.40;;
58294;SDS011;45705;55.592;37.460;2022-12-29T00:29:42;5.13;;;1.48;;
58294;SDS011;45705;55.592;37.460;2022-12-29T00:32:26;3.47;;;1.40;;
58294;SDS011;45705;55.592;37.460;2022-12-29T00:35:12;4.70;;;1.70;;
58294;SDS011;45705;55.592;37.460;2022-12-29T00:37:44;5.82;;;1.60;;
58294;SDS011;45705;55.592;37.460;2022-12-29T00:40:33;4.63;;;1.73;;
58294;SDS011;45705;55.592;37.460;2022-12-29T00:43:17;5.28;;;2.53;;
58294;SDS011;45705;55.592;37.460;2022-12-29T00:46:01;6.35;;;2.20;;
58294;SDS011;45705;55.592;37.460;2022-12-29T00:48:29;9.80;;;2.38;;
58294;SDS011;45705;55.592;37.460;2022-12-29T00:51:13;5.63;;;1.80;;
58294;SDS011;45705;55.592;37.460;2022-12-29T00:53:41;3.70;;;1.73;;
58294;SDS011;45705;55.592;37.460;2022-12-29T00:56:07;6.13;;;2.15;;
58294;SDS011;45705;55.592;37.460;2022-12-29T00:58:33;6.22;;;1.85;;
58294;SDS011;45705;55.592;37.460;2022-12-29T01:01:05;6.30;;;1.67;;
58294;SDS011;45705;55.592;37.460;2022-12-29T01:03:34;8.50;;;1.58;;
58294;SDS011;45705;55.592;37.460;2022-12-29T01:06:01;9.82;;;2.42;;
58294;SDS011;45705;55.592;37.460;2022-12-29T01:08:31;9.05;;;1.85;;
58294;SDS011;45705;55.592;37.460;2022-12-29T01:10:58;5.75;;;1.83;;
58294;SDS011;45705;55.592;37.460;2022-12-29T01:13:31;4.53;;;1.55;;
58294;SDS011;45705;55.592;37.460;2022-12-29T01:15:57;5.05;;;1.70;;
58294;SDS011;45705;55.592;37.460;2022-12-29T01:18:24;8.50;;;2.33;;
58294;SDS011;45705;55.592;37.460;2022-12-29T01:20:50;6.93;;;2.53;;
58294;SDS011;45705;55.592;37.460;2022-12-29T01:23:24;8.68;;;2.33;;
58294;SDS011;45705;55.592;37.460;2022-12-29T01:25:50;9.35;;;2.38;;
58294;SDS011;45705;55.592;37.460;2022-12-29T01:28:15;5.28;;;2.30;;
58294;SDS011;45705;55.592;37.460;2022-12-29T01:30:41;8.50;;;3.20;;
58294;SDS011;45705;55.592;37.460;2022-12-29T01:33:07;6.25;;;2.20;;
58294;SDS011;45705;55.592;37.460;2022-12-29T01:35:32;4.78;;;2.33;;
58294;SDS011;45705;55.592;37.460;2022-12-29T01:37:58;7.95;;;2.47;;
58294;SDS011;45705;55.592;37.460;2022-12-29T01:40:24;4.78;;;2.08;;
58294;SDS011;45705;55.592;37.460;2022-12-29T01:42:50;10.50;;;2.60;;
58294;SDS011;45705;55.592;37.460;2022-12-29T01:45:16;10.35;;;2.38;;
58294;SDS011;45705;55.592;37.460;2022-12-29T01:50:19;6.72;;;2.20;;
58294;SDS011;45705;55.592;37.460;2022-12-29T01:52:51;6.68;;;2.05;;
58294;SDS011;45705;55.592;37.460;2022-12-29T01:55:22;5.53;;;2.35;;
58294;SDS011;45705;55.592;37.460;2022-12-29T01:57:49;5.68;;;1.80;;
58294;SDS011;45705;55.592;37.460;2022-12-29T02:00:18;8.15;;;1.88;;
58294;SDS011;45705;55.592;37.460;2022-12-29T02:02:47;11.10;;;2.28;;
58294;SDS011;45705;55.592;37.460;2022-12-29T02:05:19;11.68;;;2.58;;
58294;SDS011;45705;55.592;37.460;2022-12-29T02:07:50;7.20;;;2.13;;
58294;SDS011;45705;55.592;37.460;2022-12-29T02:10:17;7.75;;;2.22;;
58294;SDS011;45705;55.592;37.460;2022-12-29T02:12:48;8.35;;;1.92;;
58294;SDS011;45705;55.592;37.460;2022-12-29T02:15:14;7.05;;;2.53;;
58294;SDS011;45705;55.592;37.460;2022-12-29T02:17:45;7.65;;;2.03;;
58294;SDS011;45705;55.592;37.460;2022-12-29T02:42:55;9.30;;;3.08;;
58294;SDS011;45705;55.592;37.460;2022-12-29T02:46:06;11.07;;;2.25;;
58294;SDS011;45705;55.592;37.460;2022-12-29T02:51:03;8.15;;;2.85;;
58294;SDS011;45705;55.592;37.460;2022-12-29T02:53:33;8.25;;;2.50;;
58294;SDS011;45705;55.592;37.460;2022-12-29T02:56:20;8.48;;;2.25;;
58294;SDS011;45705;55.592;37.460;2022-12-29T02:58:46;7.35;;;2.70;;
58294;SDS011;45705;55.592;37.460;2022-12-29T03:04:02;8.13;;;2.53;;
58294;SDS011;45705;55.592;37.460;2022-12-29T03:06:43;7.05;;;2.45;;
58294;SDS011;45705;55.592;37.460;2022-12-29T03:11:58;10.25;;;3.28;;
58294;SDS011;45705;55.592;37.460;2022-12-29T03:17:51;8.55;;;2.95;;
58294;SDS011;45705;55.592;37.460;2022-12-29T03:20:38;10.63;;;2.65;;
58294;SDS011;45705;55.592;37.460;2022-12-29T03:23:11;9.07;;;3.35;;
58294;SDS011;45705;55.592;37.460;2022-12-29T03:25:41;10.98;;;3.13;;
58294;SDS011;45705;55.592;37.460;2022-12-29T03:28:12;9.10;;;3.00;;
58294;SDS011;45705;55.592;37.460;2022-12-29T03:30:45;10.00;;;3.22;;
58294;SDS011;45705;55.592;37.460;2022-12-29T03:33:14;10.38;;;3.28;;
58294;SDS011;45705;55.592;37.460;2022-12-29T03:35:44;11.52;;;3.20;;
58294;SDS011;45705;55.592;37.460;2022-12-29T03:40:49;12.70;;;3.50;;
58294;SDS011;45705;55.592;37.460;2022-12-29T03:43:23;8.68;;;3.50;;
58294;SDS011;45705;55.592;37.460;2022-12-29T03:45:51;9.45;;;3.78;;
58294;SDS011;45705;55.592;37.460;2022-12-29T03:48:16;11.38;;;3.67;;
58294;SDS011;45705;55.592;37.460;2022-12-29T03:50:44;8.80;;;4.43;;
58294;SDS011;45705;55.592;37.460;2022-12-29T03:53:09;12.98;;;4.32;;
58294;SDS011;45705;55.592;37.460;2022-12-29T03:55:38;13.75;;;4.13;;
58294;SDS011;45705;55.592;37.460;2022-12-29T03:58:04;10.13;;;4.13;;
58294;SDS011;45705;55.592;37.460;2022-12-29T04:00:46;14.50;;;4.30;;
58294;SDS011;45705;55.592;37.460;2022-12-29T04:03:11;9.63;;;4.15;;
58294;SDS011;45705;55.592;37.460;2022-12-29T04:05:37;8.73;;;3.90;;
58294;SDS011;45705;55.592;37.460;2022-12-29T04:08:03;11.68;;;4.50;;
58294;SDS011;45705;55.592;37.460;2022-12-29T04:10:29;10.50;;;4.10;;
58294;SDS011;45705;55.592;37.460;2022-12-29T04:15:25;13.32;;;4.28;;
58294;SDS011;45705;55.592;37.460;2022-12-29T04:17:52;14.13;;;4.22;;
58294;SDS011;45705;55.592;37.460;2022-12-29T04:20:18;11.95;;;4.07;;
58294;SDS011;45705;55.592;37.460;2022-12-29T04:23:05;12.70;;;3.67;;
58294;SDS011;45705;55.592;37.460;2022-12-29T04:25:33;8.52;;;2.88;;
58294;SDS011;45705;55.592;37.460;2022-12-29T04:27:59;8.73;;;3.35;;
58294;SDS011;45705;55.592;37.460;2022-12-29T04:30:44;4.53;;;2.55;;
58294;SDS011;45705;55.592;37.460;2022-12-29T04:33:18;10.18;;;3.92;;
58294;SDS011;45705;55.592;37.460;2022-12-29T04:35:44;13.50;;;3.88;;
58294;SDS011;45705;55.592;37.460;2022-12-29T04:38:11;9.32;;;3.33;;
58294;SDS011;45705;55.592;37.460;2022-12-29T04:40:40;6.70;;;3.22;;
58294;SDS011;45705;55.592;37.460;2022-12-29T04:43:08;8.27;;;3.17;;
58294;SDS011;45705;55.592;37.460;2022-12-29T04:45:51;7.22;;;2.85;;
58294;SDS011;45705;55.592;37.460;2022-12-29T04:48:27;6.07;;;2.70;;
58294;SDS011;45705;55.592;37.460;2022-12-29T04:51:19;12.68;;;3.53;;
58294;SDS011;45705;55.592;37.460;2022-12-29T04:53:45;8.00;;;3.13;;
58294;SDS011;45705;55.592;37.460;2022-12-29T04:56:11;10.43;;;3.53;;
58294;SDS011;45705;55.592;37.460;2022-12-29T04:58:37;9.60;;;3.78;;
58294;SDS011;45705;55.592;37.460;2022-12-29T05:01:04;10.43;;;3.00;;
58294;SDS011;45705;55.592;37.460;2022-12-29T05:03:30;5.70;;;2.63;;
58294;SDS011;45705;55.592;37.460;2022-12-29T05:05:56;7.03;;;2.95;;
58294;SDS011;45705;55.592;37.460;2022-12-29T05:08:22;7.80;;;3.10;;
58294;SDS011;45705;55.592;37.460;2022-12-29T05:10:51;10.25;;;4.47;;
58294;SDS011;45705;55.592;37.460;2022-12-29T05:13:18;11.00;;;3.63;;
58294;SDS011;45705;55.592;37.460;2022-12-29T05:15:52;10.95;;;3.45;;
58294;SDS011;45705;55.592;37.460;2022-12-29T05:18:20;8.52;;;4.00;;
58294;SDS011;45705;55.592;37.460;2022-12-29T05:20:47;11.93;;;3.95;;
58294;SDS011;45705;55.592;37.460;2022-12-29T05:23:13;8.95;;;3.72;;
58294;SDS011;45705;55.592;37.460;2022-12-29T05:25:41;7.65;;;3.60;;
58294;SDS011;45705;55.592;37.460;2022-12-29T05:28:16;8.88;;;2.55;;
58294;SDS011;45705;55.592;37.460;2022-12-29T05:30:48;10.35;;;3.55;;
58294;SDS011;45705;55.592;37.460;2022-12-29T05:33:17;10.43;;;3.75;;
58294;SDS011;45705;55.592;37.460;2022-12-29T05:35:44;11.93;;;3.95;;
58294;SDS011;45705;55.592;37.460;2022-12-29T05:38:11;10.70;;;4.43;;
58294;SDS011;45705;55.592;37.460;2022-12-29T05:40:37;7.82;;;3.58;;
58294;SDS011;45705;55.592;37.460;2022-12-29T05:43:11;15.45;;;3.70;;
58294;SDS011;45705;55.592;37.460;2022-12-29T05:45:56;10.55;;;3.78;;
58294;SDS011;45705;55.592;37.460;2022-12-29T05:48:31;7.63;;;3.30;;
58294;SDS011;45705;55.592;37.460;2022-12-29T05:51:23;8.23;;;3.50;;
58294;SDS011;45705;55.592;37.460;2022-12-29T05:53:51;8.32;;;3.28;;
58294;SDS011;45705;55.592;37.460;2022-12-29T05:56:17;12.00;;;4.13;;
58294;SDS011;45705;55.592;37.460;2022-12-29T05:58:45;10.40;;;3.55;;
58294;SDS011;45705;55.592;37.460;2022-12-29T06:01:11;9.40;;;3.53;;
58294;SDS011;45705;55.592;37.460;2022-12-29T06:03:37;14.80;;;3.42;;
58294;SDS011;45705;55.592;37.460;2022-12-29T06:06:02;10.27;;;3.88;;
58294;SDS011;45705;55.592;37.460;2022-12-29T06:08:28;8.90;;;3.90;;
58294;SDS011;45705;55.592;37.460;2022-12-29T06:10:54;10.32;;;4.03;;
58294;SDS011;45705;55.592;37.460;2022-12-29T06:13:20;8.90;;;4.40;;
58294;SDS011;45705;55.592;37.460;2022-12-29T06:15:49;9.55;;;4.50;;
58294;SDS011;45705;55.592;37.460;2022-12-29T06:18:15;15.82;;;4.55;;
58294;SDS011;45705;55.592;37.460;2022-12-29T06:20:43;10.90;;;4.85;;
58294;SDS011;45705;55.592;37.460;2022-12-29T06:23:09;21.00;;;5.38;;
58294;SDS011;45705;55.592;37.460;2022-12-29T06:25:35;9.57;;;4.80;;
58294;SDS011;45705;55.592;37.460;2022-12-29T06:28:02;11.85;;;5.18;;
58294;SDS011;45705;55.592;37.460;2022-12-29T06:30:28;16.75;;;5.43;;
58294;SDS011;45705;55.592;37.460;2022-12-29T06:32:54;15.32;;;5.38;;
58294;SDS011;45705;55.592;37.460;2022-12-29T06:35:23;18.25;;;6.57;;
58294;SDS011;45705;55.592;37.460;2022-12-29T06:37:50;9.60;;;4.60;;
58294;SDS011;45705;55.592;37.460;2022-12-29T06:40:16;16.77;;;4.20;;
58294;SDS011;45705;55.592;37.460;2022-12-29T06:43:15;10.95;;;5.38;;
58294;SDS011;45705;55.592;37.460;2022-12-29T06:45:58;9.35;;;4.13;;
58294;SDS011;45705;55.592;37.460;2022-12-29T06:48:24;13.07;;;4.53;;
58294;SDS011;45705;55.592;37.460;2022-12-29T06:50:50;14.80;;;4.65;;
58294;SDS011;45705;55.592;37.460;2022-12-29T06:53:16;13.27;;;5.43;;
58294;SDS011;45705;55.592;37.460;2022-12-29T06:55:42;9.85;;;4.40;;
58294;SDS011;45705;55.592;37.460;2022-12-29T06:58:08;7.18;;;4.70;;
58294;SDS011;45705;55.592;37.460;2022-12-29T07:00:33;9.43;;;5.03;;
58294;SDS011;45705;55.592;37.460;2022-12-29T07:03:00;12.43;;;5.63;;
58294;SDS011;45705;55.592;37.460;2022-12-29T07:05:25;16.00;;;6.68;;
58294;SDS011;45705;55.592;37.460;2022-12-29T07:07:53;12.07;;;6.47;;
58294;SDS011;45705;55.592;37.460;2022-12-29T07:10:19;15.60;;;7.40;;
58294;SDS011;45705;55.592;37.460;2022-12-29T07:12:47;15.07;;;7.03;;
58294;SDS011;45705;55.592;37.460;2022-12-29T07:15:12;17.35;;;7.90;;
58294;SDS011;45705;55.592;37.460;2022-12-29T07:17:38;14.65;;;7.90;;
58294;SDS011;45705;55.592;37.460;2022-12-29T07:20:04;17.65;;;8.15;;
58294;SDS011;45705;55.592;37.460;2022-12-29T07:24:59;17.85;;;7.75;;
58294;SDS011;45705;55.592;37.460;2022-12-29T07:27:24;13.98;;;6.32;;
58294;SDS011;45705;55.592;37.460;2022-12-29T07:29:50;16.85;;;6.38;;
58294;SDS011;45705;55.592;37.460;2022-12-29T07:32:16;15.00;;;7.13;;
58294;SDS011;45705;55.592;37.460;2022-12-29T07:34:41;11.75;;;5.68;;
58294;SDS011;45705;55.592;37.460;2022-12-29T07:37:07;12.55;;;5.40;;
58294;SDS011;45705;55.592;37.460;2022-12-29T07:39:33;12.90;;;4.93;;
58294;SDS011;45705;55.592;37.460;2022-12-29T07:41:58;11.75;;;4.80;;
58294;SDS011;45705;55.592;37.460;2022-12-29T07:44:25;12.52;;;5.68;;
58294;SDS011;45705;55.592;37.460;2022-12-29T07:47:09;9.80;;;5.13;;
58294;SDS011;45705;55.592;37.460;2022-12-29T07:49:35;10.75;;;4.97;;
58294;SDS011;45705;55.592;37.460;2022-12-29T07:52:00;9.63;;;5.32;;
58294;SDS011;45705;55.592;37.460;2022-12-29T07:54:26;7.90;;;4.53;;
58294;SDS011;45705;55.592;37.460;2022-12-29T07:56:52;8.73;;;5.10;;
58294;SDS011;45705;55.592;37.460;2022-12-29T07:59:18;13.40;;;5.10;;
58294;SDS011;45705;55.592;37.460;2022-12-29T08:01:43;10.75;;;4.90;;
58294;SDS011;45705;55.592;37.460;2022-12-29T08:04:09;17.52;;;4.75;;
58294;SDS011;45705;55.592;37.460;2022-12-29T08:06:35;10.38;;;4.93;;
58294;SDS011;45705;55.592;37.460;2022-12-29T08:09:03;8.60;;;4.63;;
58294;SDS011;45705;55.592;37.460;2022-12-29T08:11:28;14.07;;;5.13;;
58294;SDS011;45705;55.592;37.460;2022-12-29T08:13:54;14.88;;;6.50;;
58294;SDS011;45705;55.592;37.460;2022-12-29T08:16:20;10.00;;;4.75;;
58294;SDS011;45705;55.592;37.460;2022-12-29T08:18:46;12.85;;;5.25;;
58294;SDS011;45705;55.592;37.460;2022-12-29T08:21:11;10.38;;;4.78;;
58294;SDS011;45705;55.592;37.460;2022-12-29T08:23:37;12.55;;;5.03;;
58294;SDS011;45705;55.592;37.460;2022-12-29T08:26:04;10.90;;;4.70;;
58294;SDS011;45705;55.592;37.460;2022-12-29T08:28:31;11.82;;;5.22;;
58294;SDS011;45705;55.592;37.460;2022-12-29T08:30:57;14.00;;;5.40;;
58294;SDS011;45705;55.592;37.460;2022-12-29T08:33:24;10.88;;;4.88;;
58294;SDS011;45705;55.592;37.460;2022-12-29T08:35:50;9.48;;;4.40;;
58294;SDS011;45705;55.592;37.460;2022-12-29T08:38:16;11.88;;;5.28;;
58294;SDS011;45705;55.592;37.460;2022-12-29T08:40:43;11.30;;;4.75;;
58294;SDS011;45705;55.592;37.460;2022-12-29T08:43:09;10.45;;;4.65;;
58294;SDS011;45705;55.592;37.460;2022-12-29T08:45:34;10.55;;;4.80;;
58294;SDS011;45705;55.592;37.460;2022-12-29T08:48:00;9.95;;;4.55;;
58294;SDS011;45705;55.592;37.460;2022-12-29T08:50:26;9.98;;;3.90;;
58294;SDS011;45705;55.592;37.460;2022-12-29T08:52:52;8.85;;;4.10;;
58294;SDS011;45705;55.592;37.460;2022-12-29T08:55:18;8.60;;;3.92;;
58294;SDS011;45705;55.592;37.460;2022-12-29T08:57:44;9.30;;;4.18;;
58294;SDS011;45705;55.592;37.460;2022-12-29T09:00:15;10.90;;;4.47;;
58294;SDS011;45705;55.592;37.460;2022-12-29T09:02:41;9.70;;;4.50;;
58294;SDS011;45705;55.592;37.460;2022-12-29T09:05:07;11.35;;;4.57;;
58294;SDS011;45705;55.592;37.460;2022-12-29T09:07:33;10.40;;;4.20;;
58294;SDS011;45705;55.592;37.460;2022-12-29T09:09:59;7.78;;;3.65;;
58294;SDS011;45705;55.592;37.460;2022-12-29T09:12:25;8.43;;;4.10;;
58294;SDS011;45705;55.592;37.460;2022-12-29T09:14:50;7.85;;;3.63;;
58294;SDS011;45705;55.592;37.460;2022-12-29T09:17:16;9.52;;;4.07;;
58294;SDS011;45705;55.592;37.460;2022-12-29T09:20:00;12.05;;;4.03;;
58294;SDS011;45705;55.592;37.460;2022-12-29T09:22:27;6.40;;;3.90;;
58294;SDS011;45705;55.592;37.460;2022-12-29T09:24:53;11.48;;;4.25;;
58294;SDS011;45705;55.592;37.460;2022-12-29T09:27:19;10.05;;;3.90;;
58294;SDS011;45705;55.592;37.460;2022-12-29T09:29:45;6.43;;;3.67;;
58294;SDS011;45705;55.592;37.460;2022-12-29T09:32:10;6.97;;;4.68;;
58294;SDS011;45705;55.592;37.460;2022-12-29T09:34:36;5.90;;;3.80;;
58294;SDS011;45705;55.592;37.460;2022-12-29T09:37:02;8.70;;;5.25;;
58294;SDS011;45705;55.592;37.460;2022-12-29T09:39:27;7.78;;;4.00;;
58294;SDS011;45705;55.592;37.460;2022-12-29T09:47:16;7.32;;;3.67;;
58294;SDS011;45705;55.592;37.460;2022-12-29T09:52:25;10.25;;;3.88;;
58294;SDS011;45705;55.592;37.460;2022-12-29T09:54:59;6.03;;;4.10;;
58294;SDS011;45705;55.592;37.460;2022-12-29T09:57:46;11.40;;;5.68;;
58294;SDS011;45705;55.592;37.460;2022-12-29T10:00:20;10.10;;;4.78;;
58294;SDS011;45705;55.592;37.460;2022-12-29T10:14:02;10.32;;;5.47;;
58294;SDS011;45705;55.592;37.460;2022-12-29T10:19:35;8.30;;;5.03;;
58294;SDS011;45705;55.592;37.460;2022-12-29T10:22:16;14.90;;;9.43;;
58294;SDS011;45705;55.592;37.460;2022-12-29T10:24:46;11.25;;;5.50;;
58294;SDS011;45705;55.592;37.460;2022-12-29T10:27:17;10.82;;;5.82;;
58294;SDS011;45705;55.592;37.460;2022-12-29T10:29:44;11.02;;;4.97;;
58294;SDS011;45705;55.592;37.460;2022-12-29T10:35:25;9.73;;;5.10;;
58294;SDS011;45705;55.592;37.460;2022-12-29T10:40:51;6.88;;;4.30;;
58294;SDS011;45705;55.592;37.460;2022-12-29T10:43:28;9.18;;;4.30;;
58294;SDS011;45705;55.592;37.460;2022-12-29T10:46:02;8.43;;;4.38;;
58294;SDS011;45705;55.592;37.460;2022-12-29T10:48:32;8.23;;;4.85;;
58294;SDS011;45705;55.592;37.460;2022-12-29T10:51:01;9.27;;;4.97;;
58294;SDS011;45705;55.592;37.460;2022-12-29T10:53:35;14.05;;;5.10;;
58294;SDS011;45705;55.592;37.460;2022-12-29T10:56:21;9.32;;;5.53;;
58294;SDS011;45705;55.592;37.460;2022-12-29T10:58:50;12.60;;;6.32;;
58294;SDS011;45705;55.592;37.460;2022-12-29T11:01:19;10.93;;;6.10;;
58294;SDS011;45705;55.592;37.460;2022-12-29T11:06:23;10.48;;;5.63;;
58294;SDS011;45705;55.592;37.460;2022-12-29T11:08:58;14.50;;;6.03;;
58294;SDS011;45705;55.592;37.460;2022-12-29T11:11:37;11.30;;;5.88;;
58294;SDS011;45705;55.592;37.460;2022-12-29T11:14:14;12.75;;;6.68;;
58294;SDS011;45705;55.592;37.460;2022-12-29T11:16:43;11.55;;;5.90;;
58294;SDS011;45705;55.592;37.460;2022-12-29T11:19:23;11.10;;;6.10;;
58294;SDS011;45705;55.592;37.460;2022-12-29T11:21:50;11.80;;;6.25;;
58294;SDS011;45705;55.592;37.460;2022-12-29T11:24:24;10.13;;;6.07;;
58294;SDS011;45705;55.592;37.460;2022-12-29T11:26:52;11.57;;;5.97;;
58294;SDS011;45705;55.592;37.460;2022-12-29T11:29:24;12.60;;;5.95;;
58294;SDS011;45705;55.592;37.460;2022-12-29T11:31:58;13.75;;;6.53;;
58294;SDS011;45705;55.592;37.460;2022-12-29T11:37:00;13.80;;;6.65;;
58294;SDS011;45705;55.592;37.460;2022-12-29T11:41:59;15.25;;;7.05;;
58294;SDS011;45705;55.592;37.460;2022-12-29T11:44:30;12.75;;;7.35;;
58294;SDS011;45705;55.592;37.460;2022-12-29T11:47:02;16.67;;;6.93;;
58294;SDS011;45705;55.592;37.460;2022-12-29T11:49:29;14.52;;;7.30;;
58294;SDS011;45705;55.592;37.460;2022-12-29T11:51:54;18.00;;;7.88;;
58294;SDS011;45705;55.592;37.460;2022-12-29T11:54:23;14.20;;;7.43;;
58294;SDS011;45705;55.592;37.460;2022-12-29T11:56:52;18.10;;;7.35;;
58294;SDS011;45705;55.592;37.460;2022-12-29T12:02:00;14.82;;;7.38;;
58294;SDS011;45705;55.592;37.460;2022-12-29T12:04:38;14.95;;;8.20;;
58294;SDS011;45705;55.592;37.460;2022-12-29T12:09:36;19.45;;;8.80;;
58294;SDS011;45705;55.592;37.460;2022-12-29T12:12:20;20.95;;;9.30;;
58294;SDS011;45705;55.592;37.460;2022-12-29T12:14:52;20.38;;;10.15;;
58294;SDS011;45705;55.592;37.460;2022-12-29T12:23:36;23.88;;;10.23;;
58294;SDS011;45705;55.592;37.460;2022-12-29T12:26:28;20.25;;;10.15;;
58294;SDS011;45705;55.592;37.460;2022-12-29T12:31:49;29.63;;;11.88;;
58294;SDS011;45705;55.592;37.460;2022-12-29T12:34:23;25.92;;;11.45;;
58294;SDS011;45705;55.592;37.460;2022-12-29T12:37:15;32.13;;;11.60;;
58294;SDS011;45705;55.592;37.460;2022-12-29T12:42:57;32.83;;;12.30;;
58294;SDS011;45705;55.592;37.460;2022-12-29T12:48:00;37.50;;;12.70;;
58294;SDS011;45705;55.592;37.460;2022-12-29T12:56:54;53.90;;;14.23;;
58294;SDS011;45705;55.592;37.460;2022-12-29T12:58:59;40.50;;;14.43;;
58294;SDS011;45705;55.592;37.460;2022-12-29T13:12:10;29.25;;;12.27;;
58294;SDS011;45705;55.592;37.460;2022-12-29T13:20:47;34.60;;;13.63;;
58294;SDS011;45705;55.592;37.460;2022-12-29T13:23:40;35.42;;;14.18;;
58294;SDS011;45705;55.592;37.460;2022-12-29T13:26:32;39.30;;;14.45;;
58294;SDS011;45705;55.592;37.460;2022-12-29T13:31:52;41.45;;;16.00;;
58294;SDS011;45705;55.592;37.460;2022-12-29T13:37:11;38.42;;;15.57;;
58294;SDS011;45705;55.592;37.460;2022-12-29T13:39:42;41.70;;;14.82;;
58294;SDS011;45705;55.592;37.460;2022-12-29T13:42:14;39.03;;;15.05;;
58294;SDS011;45705;55.592;37.460;2022-12-29T13:44:48;42.75;;;15.70;;
58294;SDS011;45705;55.592;37.460;2022-12-29T13:49:48;35.07;;;13.57;;
58294;SDS011;45705;55.592;37.460;2022-12-29T13:52:17;40.78;;;15.10;;
58294;SDS011;45705;55.592;37.460;2022-12-29T13:57:47;47.25;;;14.48;;
58294;SDS011;45705;55.592;37.460;2022-12-29T14:00:18;44.25;;;15.32;;
58294;SDS011;45705;55.592;37.460;2022-12-29T14:07:43;41.55;;;15.30;;
58294;SDS011;45705;55.592;37.460;2022-12-29T14:13:27;44.20;;;15.10;;
58294;SDS011;45705;55.592;37.460;2022-12-29T14:15:51;41.95;;;15.80;;
58294;SDS011;45705;55.592;37.460;2022-12-29T14:18:23;39.13;;;14.98;;
58294;SDS011;45705;55.592;37.460;2022-12-29T14:23:26;50.42;;;17.15;;
58294;SDS011;45705;55.592;37.460;2022-12-29T14:28:36;33.72;;;14.88;;
58294;SDS011;45705;55.592;37.460;2022-12-29T14:36:35;42.42;;;16.23;;
58294;SDS011;45705;55.592;37.460;2022-12-29T14:39:03;32.60;;;14.38;;
58294;SDS011;45705;55.592;37.460;2022-12-29T14:41:59;37.63;;;14.02;;
58294;SDS011;45705;55.592;37.460;2022-12-29T14:45:06;37.28;;;14.32;;
58294;SDS011;45705;55.592;37.460;2022-12-29T14:47:52;30.77;;;14.13;;
58294;SDS011;45705;55.592;37.460;2022-12-29T14:50:23;41.17;;;14.90;;
58294;SDS011;45705;55.592;37.460;2022-12-29T14:52:55;30.65;;;13.40;;
58294;SDS011;45705;55.592;37.460;2022-12-29T14:55:39;32.80;;;14.77;;
58294;SDS011;45705;55.592;37.460;2022-12-29T14:58:06;34.47;;;14.52;;
58294;SDS011;45705;55.592;37.460;2022-12-29T15:00:41;29.40;;;13.57;;
58294;SDS011;45705;55.592;37.460;2022-12-29T15:06:27;38.83;;;15.13;;
58294;SDS011;45705;55.592;37.460;2022-12-29T15:08:39;43.22;;;16.13;;
58294;SDS011;45705;55.592;37.460;2022-12-29T15:11:21;42.95;;;15.82;;
58294;SDS011;45705;55.592;37.460;2022-12-29T15:13:49;37.10;;;15.07;;
58294;SDS011;45705;55.592;37.460;2022-12-29T15:16:22;38.70;;;15.80;;
58294;SDS011;45705;55.592;37.460;2022-12-29T15:18:50;36.90;;;16.05;;
58294;SDS011;45705;55.592;37.460;2022-12-29T15:21:16;51.28;;;16.27;;
58294;SDS011;45705;55.592;37.460;2022-12-29T15:23:46;42.33;;;15.27;;
58294;SDS011;45705;55.592;37.460;2022-12-29T15:26:13;42.30;;;14.73;;
58294;SDS011;45705;55.592;37.460;2022-12-29T15:28:46;37.10;;;14.98;;
58294;SDS011;45705;55.592;37.460;2022-12-29T15:31:14;39.17;;;15.52;;
58294;SDS011;45705;55.592;37.460;2022-12-29T15:33:48;42.13;;;15.35;;
58294;SDS011;45705;55.592;37.460;2022-12-29T15:36:20;47.55;;;15.45;;
58294;SDS011;45705;55.592;37.460;2022-12-29T15:38:48;40.75;;;16.40;;
58294;SDS011;45705;55.592;37.460;2022-12-29T15:44:32;50.78;;;15.90;;
58294;SDS011;45705;55.592;37.460;2022-12-29T15:47:06;49.08;;;16.27;;
58294;SDS011;45705;55.592;37.460;2022-12-29T15:49:50;35.95;;;15.10;;
58294;SDS011;45705;55.592;37.460;2022-12-29T15:52:19;32.15;;;14.73;;
58294;SDS011;45705;55.592;37.460;2022-12-29T15:54:50;37.60;;;15.38;;
58294;SDS011;45705;55.592;37.460;2022-12-29T15:57:22;53.08;;;17.70;;
58294;SDS011;45705;55.592;37.460;2022-12-29T15:59:50;53.47;;;17.13;;
58294;SDS011;45705;55.592;37.460;2022-12-29T16:02:17;41.78;;;15.95;;
58294;SDS011;45705;55.592;37.460;2022-12-29T16:04:43;54.50;;;17.83;;
58294;SDS011;45705;55.592;37.460;2022-12-29T16:07:22;55.35;;;17.33;;
58294;SDS011;45705;55.592;37.460;2022-12-29T16:09:59;47.47;;;16.70;;
58294;SDS011;45705;55.592;37.460;2022-12-29T16:12:28;54.92;;;19.35;;
58294;SDS011;45705;55.592;37.460;2022-12-29T16:14:58;47.50;;;17.08;;
58294;SDS011;45705;55.592;37.460;2022-12-29T16:17:26;52.17;;;19.00;;
58294;SDS011;45705;55.592;37.460;2022-12-29T16:19:56;62.65;;;21.75;;
58294;SDS011;45705;55.592;37.460;2022-12-29T16:22:26;62.38;;;20.60;;
58294;SDS011;45705;55.592;37.460;2022-12-29T16:24:58;61.65;;;21.83;;
58294;SDS011;45705;55.592;37.460;2022-12-29T16:30:28;54.67;;;21.63;;
58294;SDS011;45705;55.592;37.460;2022-12-29T16:32:53;50.83;;;19.73;;
58294;SDS011;45705;55.592;37.460;2022-12-29T16:38:16;65.20;;;20.25;;
58294;SDS011;45705;55.592;37.460;2022-12-29T16:40:52;50.53;;;19.25;;
58294;SDS011;45705;55.592;37.460;2022-12-29T16:43:31;60.40;;;18.65;;
58294;SDS011;45705;55.592;37.460;2022-12-29T16:48:26;67.60;;;23.42;;
58294;SDS011;45705;55.592;37.460;2022-12-29T16:50:52;54.63;;;18.42;;
58294;SDS011;45705;55.592;37.460;2022-12-29T16:53:32;54.40;;;18.65;;
58294;SDS011;45705;55.592;37.460;2022-12-29T16:56:03;45.20;;;17.50;;
58294;SDS011;45705;55.592;37.460;2022-12-29T16:58:34;56.25;;;19.60;;
58294;SDS011;45705;55.592;37.460;2022-12-29T17:01:00;57.38;;;19.17;;
58294;SDS011;45705;55.592;37.460;2022-12-29T17:03:31;50.63;;;18.88;;
58294;SDS011;45705;55.592;37.460;2022-12-29T17:06:02;65.43;;;20.23;;
58294;SDS011;45705;55.592;37.460;2022-12-29T17:08:28;53.72;;;20.70;;
58294;SDS011;45705;55.592;37.460;2022-12-29T17:10:54;46.88;;;18.20;;
58294;SDS011;45705;55.592;37.460;2022-12-29T17:13:40;58.38;;;19.67;;
58294;SDS011;45705;55.592;37.460;2022-12-29T17:16:06;55.88;;;19.98;;
58294;SDS011;45705;55.592;37.460;2022-12-29T17:18:37;52.20;;;19.42;;
58294;SDS011;45705;55.592;37.460;2022-12-29T17:21:03;47.85;;;20.73;;
58294;SDS011;45705;55.592;37.460;2022-12-29T17:23:29;54.10;;;20.25;;
58294;SDS011;45705;55.592;37.460;2022-12-29T17:25:58;46.90;;;19.05;;
58294;SDS011;45705;55.592;37.460;2022-12-29T17:28:27;61.40;;;19.48;;
58294;SDS011;45705;55.592;37.460;2022-12-29T17:31:02;46.95;;;18.83;;
58294;SDS011;45705;55.592;37.460;2022-12-29T17:33:35;40.63;;;17.48;;